createdAt,value
2019-03-01T00:01:03.693Z,82.01
2019-03-01T00:04:37.946Z,82.01
2019-03-01T00:08:14.251Z,82.16
2019-03-01T00:15:50.348Z,81.77
2019-03-01T00:19:14.050Z,82.16
2019-03-01T00:23:16.598Z,81.63
2019-03-01T00:27:01.700Z,81.38
2019-03-01T00:30:28.865Z,80.65
2019-03-01T00:33:57.724Z,81.07
2019-03-01T00:38:02.715Z,81.30
2019-03-01T00:41:25.715Z,80.85
2019-03-01T00:44:41.174Z,80.42
2019-03-01T00:47:55.043Z,80.46
2019-03-01T00:51:08.830Z,79.96
2019-03-01T00:54:22.316Z,79.90
2019-03-01T00:57:35.911Z,80.44
2019-03-01T01:00:49.590Z,80.36
2019-03-01T01:04:03.288Z,80.41
2019-03-01T01:07:17.074Z,80.14
2019-03-01T01:10:30.647Z,80.99
2019-03-01T01:13:44.143Z,81.73
2019-03-01T01:16:58.090Z,81.08
2019-03-01T01:20:11.857Z,81.23
2019-03-01T01:23:25.352Z,81.51
2019-03-01T01:26:39.188Z,82.00
2019-03-01T01:29:52.680Z,82.35
2019-03-01T01:33:06.423Z,81.72
2019-03-01T01:36:20.492Z,81.42
2019-03-01T01:39:33.979Z,81.24
2019-03-01T01:42:47.487Z,80.87
2019-03-01T01:46:00.957Z,80.88
2019-03-01T01:49:14.746Z,81.29
2019-03-01T01:52:28.332Z,81.44
2019-03-01T01:55:41.837Z,81.09
2019-03-01T01:58:55.559Z,80.88
2019-03-01T02:02:09.481Z,80.96
2019-03-01T02:05:23.597Z,80.75
2019-03-01T02:08:37.659Z,80.33
2019-03-01T02:11:51.435Z,80.62
2019-03-01T02:15:06.873Z,80.71
2019-03-01T02:18:20.460Z,81.11
2019-03-01T02:21:36.161Z,81.27
2019-03-01T02:24:49.936Z,80.82
2019-03-01T02:28:03.620Z,81.28
2019-03-01T02:31:17.696Z,81.53
2019-03-01T02:34:31.187Z,81.47
2019-03-01T02:37:45.070Z,80.52
2019-03-01T02:40:58.571Z,80.38
2019-03-01T02:44:12.324Z,80.36
2019-03-01T02:47:25.904Z,79.96
2019-03-01T02:50:39.503Z,80.23
2019-03-01T02:53:53.002Z,80.08
2019-03-01T02:57:06.581Z,80.49
2019-03-01T03:00:22.374Z,80.62
2019-03-01T03:03:36.207Z,80.74
2019-03-01T03:06:58.040Z,81.18
2019-03-01T03:10:12.547Z,80.96
2019-03-01T03:13:26.026Z,81.03
2019-03-01T03:16:39.805Z,81.06
2019-03-01T03:19:53.288Z,81.50
2019-03-01T03:23:06.776Z,81.80
2019-03-01T03:26:20.266Z,81.96
2019-03-01T03:29:33.872Z,82.78
2019-03-01T03:32:47.657Z,82.40
2019-03-01T03:36:01.124Z,82.66
2019-03-01T03:39:14.608Z,82.50
2019-03-01T03:42:28.113Z,82.97
2019-03-01T03:45:41.886Z,82.82
2019-03-01T03:48:55.369Z,83.36
2019-03-01T03:52:09.124Z,82.99
2019-03-01T03:55:22.814Z,82.89
2019-03-01T03:58:36.501Z,83.48
2019-03-01T04:01:50.099Z,83.51
2019-03-01T04:05:04.544Z,83.73
2019-03-01T04:08:18.233Z,83.50
2019-03-01T04:11:31.833Z,83.37
2019-03-01T04:14:45.560Z,83.48
2019-03-01T04:17:59.459Z,84.48
2019-03-01T04:21:12.935Z,83.71
2019-03-01T04:24:26.418Z,83.63
2019-03-01T04:27:40.047Z,83.54
2019-03-01T04:30:53.624Z,83.46
2019-03-01T04:34:07.116Z,83.66
2019-03-01T04:37:20.978Z,83.37
2019-03-01T04:40:34.463Z,83.03
2019-03-01T04:43:47.965Z,83.42
2019-03-01T04:47:01.453Z,83.54
2019-03-01T04:50:15.047Z,83.37
2019-03-01T04:53:28.538Z,83.38
2019-03-01T04:56:42.029Z,83.92
2019-03-01T04:59:55.733Z,84.17
2019-03-01T05:03:09.497Z,83.99
2019-03-01T05:06:22.990Z,83.82
2019-03-01T05:09:36.499Z,84.29
2019-03-01T05:12:50.288Z,84.77
2019-03-01T05:16:03.969Z,84.59
2019-03-01T05:19:17.473Z,84.68
2019-03-01T05:22:31.283Z,84.52
2019-03-01T05:25:44.767Z,84.34
2019-03-01T05:28:58.530Z,83.88
2019-03-01T05:32:12.019Z,83.42
2019-03-01T05:35:25.522Z,83.12
2019-03-01T05:38:39.259Z,83.11
2019-03-01T05:41:52.736Z,83.28
2019-03-01T05:45:12.108Z,83.79
2019-03-01T05:48:25.708Z,83.87
2019-03-01T05:51:39.308Z,83.48
2019-03-01T05:54:52.787Z,83.29
2019-03-01T05:58:27.377Z,84.38
2019-03-01T06:01:46.224Z,85.05
2019-03-01T06:05:03.726Z,84.63
2019-03-01T06:08:37.274Z,84.41
2019-03-01T06:12:17.442Z,84.43
2019-03-01T06:15:55.143Z,84.74
2019-03-01T06:19:55.819Z,84.40
2019-03-01T06:23:31.750Z,85.01
2019-03-01T06:27:35.543Z,85.09
2019-03-01T06:31:30.461Z,84.85
2019-03-01T06:35:44.312Z,85.56
2019-03-01T06:39:38.155Z,85.15
2019-03-01T06:43:02.580Z,84.88
2019-03-01T06:46:42.331Z,84.59
2019-03-01T06:50:14.713Z,83.91
2019-03-01T06:53:28.215Z,84.01
2019-03-01T06:56:41.729Z,84.03
2019-03-01T06:59:55.303Z,83.68
2019-03-01T07:03:08.998Z,83.00
2019-03-01T07:06:22.503Z,83.26
2019-03-01T07:09:36.184Z,83.50
2019-03-01T07:12:49.984Z,83.12
2019-03-01T07:16:03.587Z,83.29
2019-03-01T07:19:17.071Z,82.47
2019-03-01T07:22:30.575Z,82.61
2019-03-01T07:25:44.186Z,83.21
2019-03-01T07:28:57.672Z,83.09
2019-03-01T07:32:11.163Z,82.65
2019-03-01T07:35:25.061Z,83.17
2019-03-01T07:38:38.792Z,82.84
2019-03-01T07:41:52.298Z,82.02
2019-03-01T07:45:07.366Z,82.50
2019-03-01T07:48:20.868Z,80.92
2019-03-01T07:51:35.988Z,81.02
2019-03-01T07:54:52.766Z,81.14
2019-03-01T07:58:05.468Z,80.77
2019-03-01T08:01:19.157Z,80.91
2019-03-01T08:04:32.640Z,80.34
2019-03-01T08:07:55.624Z,79.84
2019-03-01T08:11:01.845Z,80.39
2019-03-01T08:14:15.698Z,79.95
2019-03-01T08:17:31.626Z,79.36
2019-03-01T08:20:45.168Z,79.74
2019-03-01T08:23:58.687Z,79.18
2019-03-01T08:27:12.338Z,79.54
2019-03-01T08:30:26.248Z,78.77
2019-03-01T08:33:43.455Z,78.30
2019-03-01T08:36:55.148Z,78.34
2019-03-01T08:40:14.705Z,78.03
2019-03-01T08:43:29.059Z,77.67
2019-03-01T08:46:45.430Z,76.87
2019-03-01T08:49:57.982Z,76.99
2019-03-01T08:53:15.046Z,77.19
2019-03-01T08:56:27.136Z,76.62
2019-03-01T08:59:40.610Z,76.20
2019-03-01T09:02:56.320Z,76.19
2019-03-01T09:06:10.000Z,75.37
2019-03-01T09:09:23.485Z,75.98
2019-03-01T09:12:37.209Z,76.41
2019-03-01T09:15:50.826Z,75.71
2019-03-01T09:19:04.595Z,75.00
2019-03-01T09:22:18.072Z,73.82
2019-03-01T09:25:31.559Z,73.71
2019-03-01T09:28:45.359Z,72.91
2019-03-01T09:31:58.983Z,70.65
2019-03-01T09:35:26.444Z,71.31
2019-03-01T09:38:42.878Z,70.86
2019-03-01T09:42:02.852Z,70.12
2019-03-01T09:45:13.671Z,69.92
2019-03-01T09:48:27.409Z,69.42
2019-03-01T09:51:43.784Z,70.59
2019-03-01T09:54:56.366Z,71.14
2019-03-01T09:58:09.853Z,70.86
2019-03-01T10:01:23.485Z,72.23
2019-03-01T10:04:37.531Z,72.47
2019-03-01T10:07:51.232Z,71.38
2019-03-01T10:11:04.944Z,71.34
2019-03-01T10:14:20.274Z,71.65
2019-03-01T10:17:34.212Z,71.92
2019-03-01T10:20:48.668Z,70.88
2019-03-01T10:24:02.538Z,70.82
2019-03-01T10:27:16.030Z,70.00
2019-03-01T10:30:29.620Z,68.96
2019-03-01T10:33:43.192Z,67.54
2019-03-01T10:36:56.929Z,67.58
2019-03-01T10:40:12.495Z,67.21
2019-03-01T10:43:25.966Z,67.39
2019-03-01T10:46:39.471Z,69.75
2019-03-01T10:49:53.274Z,70.03
2019-03-01T10:53:07.153Z,72.12
2019-03-01T10:56:20.791Z,72.25
2019-03-01T10:59:34.507Z,73.76
2019-03-01T11:02:48.144Z,73.95
2019-03-01T11:06:02.031Z,73.58
2019-03-01T11:09:15.599Z,73.60
2019-03-01T11:12:29.182Z,75.01
2019-03-01T11:15:42.757Z,74.41
2019-03-01T11:18:56.228Z,73.65
2019-03-01T11:22:10.125Z,70.58
2019-03-01T11:25:23.921Z,72.32
2019-03-01T11:28:37.415Z,71.55
2019-03-01T11:31:51.007Z,68.13
2019-03-01T11:35:05.091Z,67.69
2019-03-01T11:38:18.587Z,68.29
2019-03-01T11:41:32.555Z,65.49
2019-03-01T11:44:46.026Z,66.06
2019-03-01T11:47:59.627Z,66.48
2019-03-01T11:51:13.355Z,66.17
2019-03-01T11:54:26.840Z,65.29
2019-03-01T11:57:40.330Z,64.62
2019-03-01T12:00:54.376Z,64.48
2019-03-01T12:04:07.878Z,64.49
2019-03-01T12:07:21.620Z,65.28
2019-03-01T12:10:35.216Z,64.94
2019-03-01T12:13:48.698Z,63.09
2019-03-01T12:17:02.925Z,64.83
2019-03-01T12:20:17.974Z,64.83
2019-03-01T12:23:31.572Z,66.02
2019-03-01T12:26:45.164Z,66.93
2019-03-01T12:29:58.986Z,68.21
2019-03-01T12:33:12.728Z,69.65
2019-03-01T12:36:26.463Z,71.26
2019-03-01T12:39:40.236Z,72.96
2019-03-01T12:42:54.172Z,74.21
2019-03-01T12:46:07.847Z,74.02
2019-03-01T12:49:22.337Z,71.70
2019-03-01T12:52:36.378Z,67.70
2019-03-01T12:55:49.858Z,67.22
2019-03-01T12:59:03.802Z,68.01
2019-03-01T13:02:20.318Z,69.04
2019-03-01T13:05:33.861Z,69.62
2019-03-01T13:08:51.116Z,70.74
2019-03-01T13:12:03.004Z,71.99
2019-03-01T13:15:16.688Z,72.16
2019-03-01T13:18:30.213Z,72.56
2019-03-01T13:21:45.512Z,71.76
2019-03-01T13:24:59.390Z,71.33
2019-03-01T13:28:13.503Z,70.21
2019-03-01T13:31:27.180Z,69.12
2019-03-01T13:34:40.799Z,69.85
2019-03-01T13:37:55.476Z,70.19
2019-03-01T13:41:09.784Z,69.22
2019-03-01T13:44:23.262Z,70.63
2019-03-01T13:47:37.011Z,71.23
2019-03-01T13:50:50.676Z,73.16
2019-03-01T13:54:05.783Z,73.80
2019-03-01T13:57:19.948Z,74.40
2019-03-01T14:00:33.943Z,75.24
2019-03-01T14:03:47.431Z,76.27
2019-03-01T14:07:01.150Z,76.84
2019-03-01T14:10:16.690Z,76.91
2019-03-01T14:13:30.448Z,77.05
2019-03-01T14:16:43.944Z,77.24
2019-03-01T14:19:57.412Z,76.66
2019-03-01T14:23:10.886Z,75.90
2019-03-01T14:26:24.373Z,75.54
2019-03-01T14:29:37.827Z,75.35
2019-03-01T14:32:56.920Z,75.66
2019-03-01T14:36:07.006Z,75.00
2019-03-01T14:39:20.490Z,75.76
2019-03-01T14:42:33.987Z,74.34
2019-03-01T14:45:48.138Z,75.97
2019-03-01T14:49:01.808Z,75.67
2019-03-01T14:52:18.252Z,75.24
2019-03-01T14:55:33.888Z,75.10
2019-03-01T14:59:02.352Z,74.82
2019-03-01T15:02:56.204Z,74.58
2019-03-01T15:06:09.888Z,74.42
2019-03-01T15:09:23.359Z,73.33
2019-03-01T15:12:37.103Z,74.03
2019-03-01T15:15:50.809Z,73.22
2019-03-01T15:19:04.675Z,72.91
2019-03-01T15:22:19.711Z,72.48
2019-03-01T15:25:33.403Z,72.01
2019-03-01T15:28:55.296Z,71.78
2019-03-01T15:32:07.136Z,71.79
2019-03-01T15:35:20.647Z,72.18
2019-03-01T15:38:34.331Z,72.03
2019-03-01T15:41:48.210Z,71.74
2019-03-01T15:45:05.001Z,72.41
2019-03-01T15:48:17.346Z,71.85
2019-03-01T15:51:31.110Z,70.61
2019-03-01T15:54:47.773Z,70.20
2019-03-01T15:58:01.849Z,70.35
2019-03-01T16:01:15.693Z,70.14
2019-03-01T16:04:30.408Z,70.21
2019-03-01T16:07:44.657Z,69.86
2019-03-01T16:10:58.159Z,69.26
2019-03-01T16:14:11.645Z,69.46
2019-03-01T16:17:25.445Z,69.83
2019-03-01T16:20:39.251Z,69.94
2019-03-01T16:23:52.747Z,70.20
2019-03-01T16:27:08.629Z,70.30
2019-03-01T16:30:21.938Z,70.05
2019-03-01T16:33:35.673Z,70.33
2019-03-01T16:36:52.111Z,69.95
2019-03-01T16:40:08.391Z,70.75
2019-03-01T16:43:22.258Z,70.84
2019-03-01T16:46:36.103Z,71.02
2019-03-01T16:49:49.595Z,70.71
2019-03-01T16:53:04.607Z,71.07
2019-03-01T16:56:19.331Z,70.97
2019-03-01T16:59:32.937Z,71.03
2019-03-01T17:02:46.672Z,71.12
2019-03-01T17:06:00.647Z,71.09
2019-03-01T17:09:15.536Z,71.25
2019-03-01T17:12:30.408Z,71.86
2019-03-01T17:15:45.550Z,71.79
2019-03-01T17:18:59.612Z,72.01
2019-03-01T17:22:13.355Z,72.36
2019-03-01T17:25:27.724Z,72.48
2019-03-01T17:28:41.363Z,72.38
2019-03-01T17:31:54.958Z,73.01
2019-03-01T17:35:08.788Z,73.04
2019-03-01T17:38:22.279Z,73.41
2019-03-01T17:41:36.332Z,73.45
2019-03-01T17:44:50.155Z,73.51
2019-03-01T17:48:03.852Z,73.49
2019-03-01T17:51:18.199Z,73.66
2019-03-01T17:54:33.054Z,74.08
2019-03-01T17:57:46.817Z,74.06
2019-03-01T18:01:02.694Z,74.24
2019-03-01T18:04:16.024Z,74.16
2019-03-01T18:07:29.695Z,73.89
2019-03-01T18:10:43.447Z,73.64
2019-03-01T18:14:00.612Z,73.36
2019-03-01T18:17:12.705Z,73.73
2019-03-01T18:20:26.629Z,73.70
2019-03-01T18:23:40.894Z,74.15
2019-03-01T18:26:54.390Z,73.60
2019-03-01T18:30:16.114Z,74.47
2019-03-01T18:33:29.384Z,74.54
2019-03-01T18:36:43.042Z,74.69
2019-03-01T18:39:57.372Z,74.82
2019-03-01T18:43:13.083Z,74.90
2019-03-01T18:46:26.453Z,74.75
2019-03-01T18:49:39.958Z,75.44
2019-03-01T18:52:54.230Z,75.79
2019-03-01T18:56:07.975Z,75.71
2019-03-01T18:59:24.601Z,75.43
2019-03-01T19:02:37.619Z,75.24
2019-03-01T19:05:51.245Z,74.89
2019-03-01T19:09:06.451Z,75.01
2019-03-01T19:12:20.415Z,74.76
2019-03-01T19:15:35.199Z,74.74
2019-03-01T19:18:51.226Z,74.60
2019-03-01T19:22:04.357Z,74.67
2019-03-01T19:25:18.235Z,74.60
2019-03-01T19:28:31.971Z,74.93
2019-03-01T19:31:45.460Z,74.93
2019-03-01T19:34:59.300Z,74.81
2019-03-01T19:38:13.133Z,74.95
2019-03-01T19:41:26.900Z,74.73
2019-03-01T19:44:40.410Z,74.84
2019-03-01T19:47:54.284Z,74.86
2019-03-01T19:51:08.059Z,74.69
2019-03-01T19:54:21.559Z,74.79
2019-03-01T19:57:36.360Z,74.82
2019-03-01T20:00:50.620Z,74.47
2019-03-01T20:04:04.281Z,74.38
2019-03-01T20:07:19.788Z,74.29
2019-03-01T20:10:33.790Z,74.29
2019-03-01T20:13:50.559Z,74.58
2019-03-01T20:17:03.256Z,74.37
2019-03-01T20:20:17.707Z,74.31
2019-03-01T20:23:33.964Z,74.10
2019-03-01T20:26:47.569Z,73.96
2019-03-01T20:30:01.371Z,73.99
2019-03-01T20:33:14.979Z,74.35
2019-03-01T20:36:28.459Z,76.26
2019-03-01T20:39:42.241Z,78.48
2019-03-01T20:42:59.844Z,79.94
2019-03-01T20:46:11.331Z,81.25
2019-03-01T20:49:25.187Z,82.25
2019-03-01T20:52:39.106Z,83.19
2019-03-01T20:55:52.930Z,83.34
2019-03-01T20:59:06.695Z,83.55
2019-03-01T21:02:20.383Z,83.48
2019-03-01T21:05:33.991Z,84.37
2019-03-01T21:08:47.491Z,84.98
2019-03-01T21:12:01.241Z,85.21
2019-03-01T21:15:15.714Z,84.93
2019-03-01T21:18:30.795Z,85.11
2019-03-01T21:21:44.912Z,85.62
2019-03-01T21:24:59.422Z,85.47
2019-03-01T21:28:13.821Z,84.94
2019-03-01T21:31:27.299Z,85.29
2019-03-01T21:34:40.796Z,85.23
2019-03-01T21:37:54.637Z,85.29
2019-03-01T21:41:09.809Z,85.01
2019-03-01T21:44:23.541Z,84.71
2019-03-01T21:47:37.020Z,84.43
2019-03-01T21:50:51.257Z,84.78
2019-03-01T21:54:05.327Z,84.90
2019-03-01T21:57:18.818Z,84.50
2019-03-01T22:00:34.742Z,84.66
2019-03-01T22:03:47.999Z,84.31
2019-03-01T22:07:02.757Z,84.15
2019-03-01T22:10:16.883Z,84.02
2019-03-01T22:13:32.553Z,83.93
2019-03-01T22:16:45.757Z,83.61
2019-03-01T22:19:59.362Z,83.48
2019-03-01T22:23:15.689Z,83.25
2019-03-01T22:26:29.064Z,83.09
2019-03-01T22:29:43.549Z,83.00
2019-03-01T22:32:58.291Z,83.26
2019-03-01T22:36:11.758Z,83.23
2019-03-01T22:39:25.522Z,83.33
2019-03-01T22:42:39.214Z,83.31
2019-03-01T22:45:52.713Z,83.33
2019-03-01T22:49:06.195Z,83.54
2019-03-01T22:52:19.691Z,83.41
2019-03-01T22:55:33.496Z,83.75
2019-03-01T22:58:47.062Z,84.15
2019-03-01T23:02:04.423Z,84.35
2019-03-01T23:05:19.361Z,84.55
2019-03-01T23:08:35.570Z,85.48
2019-03-01T23:11:48.498Z,85.60
2019-03-01T23:15:02.795Z,85.44
2019-03-01T23:18:17.839Z,85.61
2019-03-01T23:21:32.610Z,85.29
2019-03-01T23:24:47.079Z,85.13
2019-03-01T23:28:04.029Z,84.77
2019-03-01T23:31:16.514Z,84.06
2019-03-01T23:34:30.000Z,84.61
2019-03-01T23:37:43.499Z,84.67
2019-03-01T23:40:57.082Z,84.50
2019-03-01T23:44:10.580Z,84.39
2019-03-01T23:47:24.370Z,84.45
2019-03-01T23:50:37.847Z,84.56
2019-03-01T23:53:51.343Z,83.80
2019-03-01T23:57:05.610Z,83.90
